Terminal Aerodrome Forecast
Issued by NWS

Home | Current Version | Previous Version | Graphics & Text | Print | Product List | Glossary On
Versions: 1 2 3 4 5 6 7 8 9 10 11 12 13 14 15 16 17 18
000
FTUS43 KMPX 261100
TAFRWF
TAF
KRWF 261135Z 2612/2712 04007KT 2SM -SN BR SCT008 OVC015
      TEMPO 2612/2615 3/4SM -SN
     FM261700 34013G22KT 4SM -SN BLSN SCT009 OVC012
     FM262000 32012G20KT 6SM BLSN BKN012
     FM262300 32011KT P6SM SCT035=

USA.gov is the U.S. government's official web portal to all federal, state and local government web resources and services.